Time;durP1;ratioP1;P1;durP2;ratioP2;P2;SDS_P1;SDS_P2;PMS_P1;PMS_P2;Temp;Humidity;BMP_temperature;BMP_pressure;BME280_temperature;BME280_humidity;BME280_pressure;Samples;Min_cycle;Max_cycle;Signal;HPM_P1;HPM_P2
2024/03/25 00:00:18;;;;;;;3.55;1.48;;;6.10;78.00;;;;;;5041551;28;20063;-62
2024/03/25 00:02:43;;;;;;;3.97;1.70;;;6.20;78.00;;;;;;5039793;28;20142;-63
2024/03/25 00:05:09;;;;;;;5.00;1.67;;;6.20;78.00;;;;;;5041096;28;20032;-64
2024/03/25 00:07:35;;;;;;;3.97;1.77;;;6.10;77.80;;;;;;5038809;28;20576;-63
2024/03/25 00:10:01;;;;;;;2.58;1.50;;;6.10;77.80;;;;;;5038919;28;20136;-62
2024/03/25 00:12:27;;;;;;;3.22;1.60;;;6.10;77.90;;;;;;5041081;28;20131;-63
2024/03/25 00:14:53;;;;;;;3.47;1.60;;;6.10;78.00;;;;;;5045296;28;20067;-62
2024/03/25 00:17:19;;;;;;;2.95;1.52;;;6.10;78.10;;;;;;5038876;28;20068;-64
2024/03/25 00:19:50;;;;;;;2.80;1.40;;;6.00;78.00;;;;;;5040248;28;20033;-63
2024/03/25 00:22:17;;;;;;;4.38;1.80;;;6.10;78.00;;;;;;5050340;28;20124;-63
2024/03/25 00:24:43;;;;;;;5.90;1.70;;;6.10;78.00;;;;;;5049155;28;20033;-63
2024/03/25 00:27:08;;;;;;;2.35;1.58;;;6.00;78.10;;;;;;5048418;28;20548;-63
2024/03/25 00:29:34;;;;;;;3.75;1.60;;;6.00;78.10;;;;;;5046870;28;20033;-62
2024/03/25 00:31:59;;;;;;;3.10;1.48;;;6.00;78.10;;;;;;5043347;28;20469;-62
2024/03/25 00:34:25;;;;;;;3.03;1.67;;;6.00;78.10;;;;;;5046211;28;20118;-62
2024/03/25 00:36:50;;;;;;;4.18;1.42;;;6.00;78.10;;;;;;5041505;28;20099;-61
2024/03/25 00:39:17;;;;;;;2.75;1.33;;;6.00;78.10;;;;;;5042624;28;20033;-65
2024/03/25 00:41:42;;;;;;;2.95;1.50;;;6.00;78.10;;;;;;5042543;28;20071;-62
2024/03/25 00:44:08;;;;;;;1.33;1.20;;;6.00;78.10;;;;;;5046217;28;20029;-63
2024/03/25 00:46:33;;;;;;;3.17;1.40;;;6.00;78.20;;;;;;5048701;28;20033;-63
2024/03/25 00:48:59;;;;;;;5.38;1.60;;;6.00;78.20;;;;;;5043483;28;20044;-62
2024/03/25 00:51:24;;;;;;;3.47;1.80;;;5.90;78.30;;;;;;5043558;28;20037;-62
2024/03/25 00:53:50;;;;;;;1.88;1.17;;;5.90;78.30;;;;;;5043121;28;20036;-62
2024/03/25 00:56:16;;;;;;;3.53;1.42;;;5.90;78.30;;;;;;5039059;28;20033;-62
2024/03/25 00:58:41;;;;;;;2.40;1.38;;;5.90;78.40;;;;;;5044394;28;20488;-62
2024/03/25 01:01:07;;;;;;;4.00;1.42;;;5.90;78.40;;;;;;5041943;28;20048;-63
2024/03/25 01:03:33;;;;;;;4.03;1.40;;;5.80;78.30;;;;;;5048994;28;20037;-62
2024/03/25 01:05:59;;;;;;;3.38;1.55;;;5.80;78.50;;;;;;5051674;28;20052;-62
2024/03/25 01:08:25;;;;;;;1.98;1.42;;;5.80;78.60;;;;;;5049514;28;20611;-63
2024/03/25 01:10:50;;;;;;;2.17;1.42;;;5.80;78.60;;;;;;5053337;28;20033;-63
2024/03/25 01:13:16;;;;;;;2.97;1.50;;;5.80;78.60;;;;;;5054692;28;20025;-63
2024/03/25 01:15:42;;;;;;;2.25;1.50;;;5.80;78.60;;;;;;5051038;28;20493;-63
2024/03/25 01:18:08;;;;;;;1.50;1.27;;;5.70;78.60;;;;;;5050782;28;20122;-61
2024/03/25 01:20:33;;;;;;;3.22;1.25;;;5.70;78.60;;;;;;5049959;28;20036;-63
2024/03/25 01:22:59;;;;;;;3.13;1.60;;;5.70;78.70;;;;;;5050128;28;20068;-63
2024/03/25 01:25:25;;;;;;;2.72;1.30;;;5.70;78.80;;;;;;5051767;28;20060;-63
2024/03/25 01:27:51;;;;;;;3.17;1.52;;;5.70;78.90;;;;;;5049154;28;20056;-63
2024/03/25 01:30:18;;;;;;;5.22;1.42;;;5.70;78.90;;;;;;5047869;28;20045;-62
2024/03/25 01:32:46;;;;;;;2.60;1.30;;;5.70;78.90;;;;;;5049070;28;20033;-63
2024/03/25 01:35:12;;;;;;;2.53;1.40;;;5.70;79.00;;;;;;5052594;28;20455;-63
2024/03/25 01:37:37;;;;;;;3.60;1.45;;;5.70;79.00;;;;;;5047678;28;20052;-63
2024/03/25 01:40:04;;;;;;;1.98;1.30;;;5.70;79.00;;;;;;5044432;28;20061;-62
2024/03/25 01:42:30;;;;;;;1.90;1.17;;;5.70;78.90;;;;;;5041245;28;20488;-63
2024/03/25 01:44:55;;;;;;;4.03;1.40;;;5.70;78.90;;;;;;5040780;28;20036;-63
2024/03/25 01:47:22;;;;;;;6.13;1.48;;;5.60;78.80;;;;;;5041896;28;20043;-64
2024/03/25 01:49:49;;;;;;;4.20;1.40;;;5.60;78.80;;;;;;5047231;28;20044;-63
2024/03/25 01:52:15;;;;;;;3.10;1.50;;;5.60;79.00;;;;;;5046630;28;20044;-61
2024/03/25 01:54:41;;;;;;;3.00;1.30;;;5.50;79.10;;;;;;5042900;28;20057;-63
2024/03/25 01:57:07;;;;;;;3.47;1.50;;;5.50;79.20;;;;;;5044857;28;20412;-62
2024/03/25 01:59:32;;;;;;;3.30;1.40;;;5.50;79.40;;;;;;5045004;28;20166;-63
2024/03/25 02:01:59;;;;;;;3.30;1.48;;;5.40;79.30;;;;;;5041681;28;20067;-61
2024/03/25 02:04:25;;;;;;;1.70;1.35;;;5.40;79.50;;;;;;5042741;28;20033;-62
2024/03/25 02:06:51;;;;;;;3.05;1.50;;;5.40;79.60;;;;;;5042984;28;20135;-61
2024/03/25 02:09:18;;;;;;;3.72;1.58;;;5.30;79.80;;;;;;5043803;28;20417;-63
2024/03/25 02:11:43;;;;;;;2.33;1.38;;;5.30;79.90;;;;;;5039186;28;20404;-60
2024/03/25 02:14:09;;;;;;;3.65;1.33;;;5.30;79.90;;;;;;5044151;28;20029;-62
2024/03/25 02:16:35;;;;;;;2.55;1.30;;;5.30;79.90;;;;;;5047208;28;20111;-62
2024/03/25 02:19:01;;;;;;;2.97;1.67;;;5.30;79.90;;;;;;5041445;28;20162;-62
2024/03/25 02:21:26;;;;;;;4.00;1.70;;;5.20;79.90;;;;;;5039666;28;20495;-63
2024/03/25 02:23:56;;;;;;;1.75;1.50;;;5.20;80.10;;;;;;5040229;28;20408;-62
2024/03/25 02:26:23;;;;;;;1.98;1.15;;;5.20;80.10;;;;;;5038707;28;20678;-62
2024/03/25 02:28:48;;;;;;;1.80;1.30;;;5.10;80.00;;;;;;5040576;28;20107;-61
2024/03/25 02:31:14;;;;;;;2.80;1.40;;;5.10;80.20;;;;;;5044250;28;20488;-61
2024/03/25 02:33:42;;;;;;;2.42;1.38;;;5.00;80.20;;;;;;5041828;28;20037;-61
2024/03/25 02:36:08;;;;;;;1.98;1.23;;;5.10;80.30;;;;;;5041023;28;20052;-63
2024/03/25 02:38:34;;;;;;;2.30;1.25;;;5.00;80.20;;;;;;5046023;28;20512;-61
2024/03/25 02:41:00;;;;;;;2.28;1.38;;;5.00;80.50;;;;;;5044488;28;20064;-63
2024/03/25 02:43:26;;;;;;;1.55;1.30;;;4.90;80.50;;;;;;5042558;28;20056;-63
2024/03/25 02:45:52;;;;;;;2.30;1.35;;;4.90;80.60;;;;;;5046434;28;20041;-62
2024/03/25 02:48:17;;;;;;;2.20;1.35;;;5.00;80.90;;;;;;5042020;28;20033;-61
2024/03/25 02:50:43;;;;;;;2.63;1.35;;;4.90;81.60;;;;;;5042333;28;20511;-57
2024/03/25 02:53:08;;;;;;;5.50;1.50;;;5.00;80.70;;;;;;5043412;28;20447;-58
2024/03/25 02:55:34;;;;;;;2.33;1.40;;;5.00;80.90;;;;;;5036787;28;20033;-61
2024/03/25 02:57:59;;;;;;;1.30;1.17;;;5.00;80.90;;;;;;5044732;28;20043;-62
2024/03/25 03:00:25;;;;;;;2.08;1.33;;;5.00;80.90;;;;;;5043961;28;20102;-61
2024/03/25 03:02:50;;;;;;;2.00;1.52;;;4.90;80.70;;;;;;5041512;28;20037;-62
2024/03/25 03:05:16;;;;;;;3.92;1.48;;;4.90;80.70;;;;;;5043792;28;20493;-62
2024/03/25 03:07:41;;;;;;;1.92;1.48;;;4.90;80.80;;;;;;5040780;28;20037;-61
2024/03/25 03:10:07;;;;;;;2.35;1.30;;;4.90;80.70;;;;;;5045283;28;20037;-62
2024/03/25 03:12:33;;;;;;;4.72;2.00;;;4.90;80.70;;;;;;5039651;28;20136;-62
2024/03/25 03:14:58;;;;;;;3.38;1.70;;;4.80;80.80;;;;;;5043653;28;20039;-62
2024/03/25 03:17:24;;;;;;;2.42;1.52;;;4.80;80.80;;;;;;5039981;28;20117;-62
2024/03/25 03:19:50;;;;;;;2.17;1.33;;;4.80;80.80;;;;;;5039104;28;20041;-62
2024/03/25 03:22:15;;;;;;;3.60;1.77;;;4.70;80.90;;;;;;5043177;28;20034;-63
2024/03/25 03:24:41;;;;;;;1.73;1.55;;;4.70;81.00;;;;;;5040692;28;20056;-63
2024/03/25 03:27:06;;;;;;;3.10;1.75;;;4.70;81.10;;;;;;5041958;28;20287;-62
2024/03/25 03:29:32;;;;;;;2.65;1.65;;;4.70;81.20;;;;;;5042338;28;20045;-62
2024/03/25 03:31:57;;;;;;;4.45;2.10;;;4.60;81.20;;;;;;5040053;28;20153;-61
2024/03/25 03:34:23;;;;;;;2.33;1.90;;;4.60;81.30;;;;;;5040001;28;20064;-63
2024/03/25 03:36:48;;;;;;;3.53;2.15;;;4.60;81.40;;;;;;5044008;28;20044;-63
2024/03/25 03:39:15;;;;;;;1.70;1.60;;;4.60;81.60;;;;;;5045354;28;20044;-62
2024/03/25 03:41:41;;;;;;;4.20;1.80;;;4.60;81.60;;;;;;5043549;28;20540;-61
2024/03/25 03:44:06;;;;;;;4.75;1.70;;;4.60;81.60;;;;;;5040480;28;20035;-62
2024/03/25 03:46:32;;;;;;;1.70;1.40;;;4.60;81.50;;;;;;5043093;28;20104;-60
2024/03/25 03:48:57;;;;;;;3.05;1.40;;;4.60;81.40;;;;;;5042466;28;20642;-62
2024/03/25 03:51:23;;;;;;;3.35;1.65;;;4.50;81.40;;;;;;5044658;28;20041;-62
2024/03/25 03:53:48;;;;;;;1.92;1.60;;;4.50;81.60;;;;;;5047045;28;20116;-62
2024/03/25 03:56:14;;;;;;;2.65;1.88;;;4.40;81.60;;;;;;5047898;28;20029;-63
2024/03/25 03:58:40;;;;;;;2.40;1.52;;;4.50;81.80;;;;;;5048333;28;20037;-63
2024/03/25 04:01:14;;;;;;;2.95;1.70;;;4.50;81.70;;;;;;5046264;28;20032;-62
2024/03/25 04:03:40;;;;;;;;;;;4.50;82.10;;;;;;5047144;28;20075;-62
2024/03/25 04:06:10;;;;;;;4.03;1.70;;;4.50;82.50;;;;;;5044719;28;19913;-64
2024/03/25 04:08:36;;;;;;;2.47;1.60;;;4.50;81.30;;;;;;5045787;28;20382;-62
2024/03/25 04:11:03;;;;;;;2.25;1.85;;;4.50;81.30;;;;;;5045816;28;20033;-61
2024/03/25 04:13:28;;;;;;;3.58;1.70;;;4.50;81.60;;;;;;5045947;28;20033;-62
2024/03/25 04:15:54;;;;;;;3.70;1.92;;;4.40;81.60;;;;;;5046774;28;20041;-62
2024/03/25 04:18:19;;;;;;;2.40;1.80;;;4.40;81.60;;;;;;5047755;28;20084;-63
2024/03/25 04:20:45;;;;;;;2.42;1.83;;;4.40;81.60;;;;;;5039140;28;20029;-63
2024/03/25 04:23:10;;;;;;;4.63;2.20;;;4.40;81.60;;;;;;5052142;28;20033;-61
2024/03/25 04:25:37;;;;;;;3.55;1.88;;;4.40;81.70;;;;;;5049605;28;20501;-62
2024/03/25 04:28:03;;;;;;;4.30;2.13;;;4.40;81.70;;;;;;5044456;28;20040;-61
2024/03/25 04:30:29;;;;;;;2.95;1.90;;;4.40;81.70;;;;;;5044699;28;20074;-61
2024/03/25 04:32:54;;;;;;;4.30;1.98;;;4.40;81.80;;;;;;5044307;28;20033;-62
2024/03/25 04:35:20;;;;;;;5.10;2.08;;;4.40;81.80;;;;;;5045063;28;20120;-63
2024/03/25 04:37:46;;;;;;;4.00;2.05;;;4.40;81.80;;;;;;5042328;28;20068;-62
2024/03/25 04:40:14;;;;;;;3.55;1.75;;;4.40;82.00;;;;;;5043623;28;20448;-63
2024/03/25 04:42:40;;;;;;;5.43;2.15;;;4.40;81.90;;;;;;5042258;28;20531;-61
2024/03/25 04:45:06;;;;;;;4.03;2.05;;;4.30;81.80;;;;;;5044682;28;20045;-63
2024/03/25 04:47:31;;;;;;;2.80;1.95;;;4.30;81.80;;;;;;5041469;28;20033;-62
2024/03/25 04:49:57;;;;;;;2.55;2.00;;;4.30;81.90;;;;;;5042982;28;20033;-62
2024/03/25 04:52:24;;;;;;;5.85;2.45;;;4.30;82.00;;;;;;5041768;28;20122;-62
2024/03/25 04:54:49;;;;;;;4.97;2.20;;;4.30;82.00;;;;;;5041813;28;20128;-63
2024/03/25 04:57:15;;;;;;;4.20;2.13;;;4.30;82.00;;;;;;5045072;28;20129;-61
2024/03/25 04:59:41;;;;;;;5.88;2.33;;;4.30;82.00;;;;;;5043169;28;20051;-60
2024/03/25 05:02:06;;;;;;;2.55;1.92;;;4.30;82.00;;;;;;5042534;28;20036;-62
2024/03/25 05:04:32;;;;;;;3.50;2.00;;;4.30;82.00;;;;;;5043750;28;20494;-63
2024/03/25 05:06:58;;;;;;;3.78;2.10;;;4.30;82.00;;;;;;5042476;28;20048;-62
2024/03/25 05:09:23;;;;;;;3.38;2.13;;;4.30;82.80;;;;;;5047403;28;20044;-62
2024/03/25 05:11:49;;;;;;;3.38;1.98;;;4.30;81.70;;;;;;5044239;28;20301;-63
2024/03/25 05:14:15;;;;;;;5.70;2.13;;;4.30;81.40;;;;;;5043655;28;20352;-62
2024/03/25 05:16:40;;;;;;;2.13;1.92;;;4.30;81.30;;;;;;5042605;28;20136;-63
2024/03/25 05:19:06;;;;;;;2.30;2.10;;;4.20;82.00;;;;;;5041284;28;20037;-63
2024/03/25 05:21:32;;;;;;;3.42;2.20;;;4.20;81.00;;;;;;5043424;28;20116;-63
2024/03/25 05:23:58;;;;;;;3.28;2.40;;;4.20;81.00;;;;;;5043189;28;20124;-62
2024/03/25 05:26:24;;;;;;;4.63;2.15;;;4.20;81.00;;;;;;5050397;28;20055;-63
2024/03/25 05:28:56;;;;;;;4.07;2.53;;;4.20;80.90;;;;;;5046756;28;20412;-63
2024/03/25 05:31:22;;;;;;;4.03;2.30;;;4.20;81.00;;;;;;5049404;28;20461;-63
2024/03/25 05:33:49;;;;;;;4.25;2.67;;;4.20;80.80;;;;;;5051001;28;20082;-62
2024/03/25 05:36:15;;;;;;;3.90;2.22;;;4.10;80.60;;;;;;5041627;28;20052;-61
2024/03/25 05:38:44;;;;;;;5.63;2.60;;;4.10;80.60;;;;;;5041490;28;20033;-61
2024/03/25 05:41:10;;;;;;;3.67;2.35;;;4.20;80.60;;;;;;5048464;28;20115;-63
2024/03/25 05:43:36;;;;;;;3.13;2.83;;;4.00;80.50;;;;;;5047761;28;20037;-62
2024/03/25 05:46:02;;;;;;;4.78;2.95;;;4.10;80.70;;;;;;5045761;28;20122;-63
2024/03/25 05:48:27;;;;;;;3.53;2.63;;;4.10;80.80;;;;;;5048011;28;20140;-62
2024/03/25 05:51:05;;;;;;;4.28;2.70;;;4.00;80.70;;;;;;5048018;28;20033;-62
2024/03/25 05:53:30;;;;;;;5.65;2.67;;;4.10;81.10;;;;;;5043506;28;20083;-61
2024/03/25 05:55:56;;;;;;;6.90;2.78;;;4.10;81.10;;;;;;5047231;28;20033;-61
2024/03/25 05:58:22;;;;;;;6.95;2.80;;;4.10;81.40;;;;;;5043464;28;20021;-61
2024/03/25 06:00:48;;;;;;;3.10;2.80;;;4.10;81.50;;;;;;5045880;28;20033;-61
2024/03/25 06:03:15;;;;;;;4.30;2.83;;;4.10;81.70;;;;;;5049582;28;20033;-61
2024/03/25 06:05:41;;;;;;;5.18;2.60;;;4.10;81.90;;;;;;5046486;28;20025;-63
2024/03/25 06:08:07;;;;;;;3.63;2.60;;;4.10;82.90;;;;;;5043474;28;20459;-63
2024/03/25 06:10:39;;;;;;;11.07;2.75;;;4.10;82.20;;;;;;5047294;28;20041;-61
2024/03/25 06:13:05;;;;;;;3.97;2.75;;;4.10;82.60;;;;;;5047491;28;20450;-61
2024/03/25 06:15:30;;;;;;;5.93;2.75;;;4.20;82.50;;;;;;5041016;28;20029;-63
2024/03/25 06:17:56;;;;;;;4.22;2.85;;;4.20;82.60;;;;;;5046440;28;20125;-62
2024/03/25 06:20:21;;;;;;;3.33;2.83;;;4.20;82.60;;;;;;5045659;28;20033;-63
2024/03/25 06:22:47;;;;;;;6.82;3.00;;;4.20;82.60;;;;;;5046436;28;20036;-61
2024/03/25 06:25:13;;;;;;;5.30;2.88;;;4.30;82.70;;;;;;5050239;28;20423;-63
2024/03/25 06:27:38;;;;;;;4.82;2.85;;;4.30;82.70;;;;;;5042581;28;20114;-62
2024/03/25 06:35:33;;;;;;;4.20;2.58;;;4.40;82.90;;;;;;5043410;28;20091;-61
2024/03/25 06:37:58;;;;;;;3.85;2.83;;;4.40;82.90;;;;;;5048206;28;20037;-61
2024/03/25 06:40:24;;;;;;;4.57;2.75;;;4.50;83.00;;;;;;5039156;28;20033;-61
2024/03/25 06:42:50;;;;;;;4.93;2.72;;;4.50;83.10;;;;;;5045152;28;20418;-62
2024/03/25 06:45:17;;;;;;;5.72;3.00;;;4.50;83.20;;;;;;5047510;28;20044;-62
2024/03/25 06:47:42;;;;;;;3.75;2.75;;;4.50;83.30;;;;;;5042031;28;20131;-60
2024/03/25 06:50:08;;;;;;;6.28;2.95;;;4.60;83.40;;;;;;5046975;28;20124;-60
2024/03/25 06:52:34;;;;;;;5.78;2.90;;;4.60;83.30;;;;;;5041781;28;20053;-60
2024/03/25 06:54:59;;;;;;;5.07;3.10;;;4.60;83.50;;;;;;5048868;28;20082;-61
2024/03/25 06:57:25;;;;;;;4.80;2.60;;;4.70;83.60;;;;;;5046398;28;20025;-61
2024/03/25 06:59:51;;;;;;;4.32;3.10;;;4.70;83.70;;;;;;5045900;28;20037;-60
2024/03/25 07:02:17;;;;;;;4.63;3.00;;;4.70;84.00;;;;;;5045024;28;20137;-58
2024/03/25 07:04:42;;;;;;;12.38;2.80;;;4.80;84.00;;;;;;5037180;28;20041;-61
2024/03/25 07:07:08;;;;;;;6.18;3.13;;;4.80;83.90;;;;;;5041500;28;20115;-59
2024/03/25 07:09:34;;;;;;;6.70;3.38;;;4.80;83.90;;;;;;5046992;28;20029;-62
2024/03/25 07:11:59;;;;;;;6.53;3.53;;;4.90;84.10;;;;;;5047057;28;20057;-62
2024/03/25 07:14:25;;;;;;;6.20;3.35;;;4.90;84.10;;;;;;5045183;28;20235;-60
2024/03/25 07:16:50;;;;;;;5.88;3.22;;;4.90;84.20;;;;;;5041875;28;20025;-58
2024/03/25 07:19:16;;;;;;;6.68;3.10;;;4.90;84.20;;;;;;5048480;28;20061;-61
2024/03/25 07:21:41;;;;;;;7.95;3.58;;;5.00;84.60;;;;;;5041631;28;20128;-63
2024/03/25 07:24:07;;;;;;;5.15;3.00;;;5.00;84.90;;;;;;5044865;28;20037;-62
2024/03/25 07:26:33;;;;;;;5.35;3.38;;;5.00;84.70;;;;;;5045156;28;20068;-60
2024/03/25 07:28:58;;;;;;;5.53;2.92;;;5.10;84.60;;;;;;5049013;28;20487;-60
2024/03/25 07:31:25;;;;;;;5.40;3.10;;;5.10;84.60;;;;;;5044492;28;20044;-62
2024/03/25 07:33:51;;;;;;;7.45;3.45;;;5.20;84.40;;;;;;5047885;28;20496;-62
2024/03/25 07:36:17;;;;;;;6.10;3.10;;;5.20;84.20;;;;;;5047837;28;20031;-63
2024/03/25 07:38:42;;;;;;;4.22;3.00;;;5.20;84.30;;;;;;5051501;28;20456;-61
2024/03/25 07:41:09;;;;;;;3.92;3.10;;;5.20;84.00;;;;;;5053505;28;20059;-61
2024/03/25 07:43:34;;;;;;;6.07;3.10;;;5.30;84.00;;;;;;5044729;28;20082;-61
2024/03/25 07:46:00;;;;;;;5.70;3.15;;;5.30;83.90;;;;;;5050731;28;20116;-60
2024/03/25 07:48:25;;;;;;;9.25;3.25;;;5.40;84.00;;;;;;5047785;28;20405;-62
2024/03/25 07:50:51;;;;;;;6.72;3.00;;;5.40;84.40;;;;;;5051153;28;20120;-62
2024/03/25 07:53:16;;;;;;;8.25;3.10;;;5.50;84.30;;;;;;5045438;28;20025;-61
2024/03/25 07:55:42;;;;;;;4.32;2.78;;;5.50;84.20;;;;;;5047673;28;20511;-60
2024/03/25 07:58:08;;;;;;;6.07;2.92;;;5.60;84.00;;;;;;5049356;28;20282;-60
2024/03/25 08:00:34;;;;;;;5.47;3.28;;;5.60;83.80;;;;;;5049798;28;20562;-62
2024/03/25 08:03:00;;;;;;;5.10;3.17;;;5.70;83.90;;;;;;5049669;28;20404;-61
2024/03/25 08:05:26;;;;;;;4.47;3.20;;;5.70;83.70;;;;;;5052390;28;20033;-59
2024/03/25 08:07:52;;;;;;;4.30;2.85;;;5.80;83.70;;;;;;5041384;28;20029;-61
2024/03/25 08:10:17;;;;;;;6.38;2.53;;;5.90;83.70;;;;;;5048774;28;20041;-61
2024/03/25 08:12:43;;;;;;;4.45;2.85;;;6.00;83.40;;;;;;5044836;28;20124;-59
2024/03/25 08:15:08;;;;;;;7.45;2.85;;;6.00;83.20;;;;;;5048587;28;20095;-61
2024/03/25 08:17:34;;;;;;;5.05;2.97;;;6.10;82.90;;;;;;5053566;28;20033;-61
2024/03/25 08:20:00;;;;;;;4.20;2.60;;;6.20;82.80;;;;;;5046180;28;20033;-61
2024/03/25 08:22:25;;;;;;;7.78;2.90;;;6.30;82.80;;;;;;5048276;28;20029;-60
2024/03/25 08:24:51;;;;;;;5.65;2.42;;;6.40;82.60;;;;;;5049556;28;20412;-60
2024/03/25 08:27:16;;;;;;;7.15;2.78;;;6.50;82.50;;;;;;5049490;28;20079;-59
2024/03/25 08:29:42;;;;;;;4.65;2.97;;;6.60;82.50;;;;;;5051368;28;20047;-59
2024/03/25 08:32:07;;;;;;;5.10;2.83;;;6.60;82.30;;;;;;5044720;28;20048;-60
2024/03/25 08:34:33;;;;;;;5.13;2.78;;;6.70;82.30;;;;;;5043995;28;20043;-61
2024/03/25 08:36:58;;;;;;;5.88;2.90;;;6.80;82.20;;;;;;5044377;28;20041;-60
2024/03/25 08:39:24;;;;;;;8.52;2.75;;;6.90;82.20;;;;;;5046834;28;20651;-61
2024/03/25 08:41:50;;;;;;;5.00;2.75;;;7.00;82.00;;;;;;5052851;28;20037;-59
2024/03/25 08:44:15;;;;;;;3.00;2.60;;;7.10;81.80;;;;;;5044759;28;20079;-61
2024/03/25 08:46:41;;;;;;;5.13;2.67;;;7.20;81.50;;;;;;5051558;28;20041;-60
2024/03/25 08:49:07;;;;;;;5.85;2.85;;;7.20;81.20;;;;;;5047301;28;20411;-60
2024/03/25 08:51:33;;;;;;;4.00;2.63;;;7.30;80.90;;;;;;5043362;28;20171;-61
2024/03/25 08:53:59;;;;;;;4.95;2.70;;;7.40;80.60;;;;;;5049012;28;20041;-59
2024/03/25 08:56:25;;;;;;;4.38;2.50;;;7.40;80.30;;;;;;5046894;28;20040;-61
2024/03/25 08:58:52;;;;;;;6.85;2.55;;;7.50;80.00;;;;;;5051463;28;20037;-61
2024/03/25 09:01:18;;;;;;;4.57;2.40;;;7.60;80.00;;;;;;5045270;28;20036;-60
2024/03/25 09:03:44;;;;;;;4.85;2.35;;;7.70;79.70;;;;;;5042871;28;20029;-61
2024/03/25 09:06:10;;;;;;;5.65;2.20;;;7.80;79.30;;;;;;5044494;28;20035;-62
2024/03/25 09:11:02;;;;;;;3.45;2.35;;;7.90;78.70;;;;;;5048172;28;20051;-61
2024/03/25 09:11:24;;;;;;;4.00;2.20;;;8.00;78.40;;;;;;5046108;28;20333;-60
2024/03/25 09:13:50;;;;;;;3.35;2.20;;;8.10;78.30;;;;;;5050347;28;20033;-62
2024/03/25 09:16:15;;;;;;;3.63;2.17;;;8.20;78.00;;;;;;5042777;28;20147;-61
2024/03/25 09:18:41;;;;;;;5.43;2.05;;;8.30;77.40;;;;;;5050694;28;20040;-61
2024/03/25 09:21:07;;;;;;;4.55;2.00;;;8.30;76.80;;;;;;5042504;28;20033;-61
2024/03/25 09:23:32;;;;;;;2.42;1.92;;;8.40;76.60;;;;;;5047290;28;20037;-58
2024/03/25 09:25:58;;;;;;;3.45;1.30;;;8.50;76.70;;;;;;5050553;28;20025;-60
2024/03/25 09:28:24;;;;;;;2.97;1.45;;;8.60;74.90;;;;;;5042120;28;20036;-60
2024/03/25 09:30:49;;;;;;;2.22;1.30;;;8.70;74.20;;;;;;5044997;28;20120;-61
2024/03/25 09:33:15;;;;;;;2.83;1.98;;;8.80;73.00;;;;;;5051519;28;20028;-61
2024/03/25 09:35:41;;;;;;;2.63;1.75;;;8.90;73.10;;;;;;5047627;28;20041;-61
2024/03/25 09:38:06;;;;;;;3.30;1.70;;;8.90;72.50;;;;;;5048284;28;20039;-59
2024/03/25 09:40:35;;;;;;;5.07;1.58;;;9.00;71.40;;;;;;5046426;28;20040;-60
2024/03/25 09:43:02;;;;;;;4.45;1.60;;;9.00;70.40;;;;;;5048851;28;20048;-59
2024/03/25 09:45:29;;;;;;;1.52;1.42;;;9.10;69.20;;;;;;5044584;28;20056;-62
2024/03/25 09:47:55;;;;;;;3.58;1.58;;;9.10;68.10;;;;;;5041285;28;20057;-59
2024/03/25 09:50:21;;;;;;;3.95;1.90;;;9.10;69.30;;;;;;5045939;28;20530;-58
2024/03/25 09:52:51;;;;;;;2.45;1.48;;;9.10;69.60;;;;;;5043122;28;20041;-61
2024/03/25 09:55:17;;;;;;;2.83;1.58;;;9.10;68.70;;;;;;5044897;28;20473;-60
2024/03/25 09:57:43;;;;;;;2.15;1.42;;;9.20;69.60;;;;;;5044296;28;20037;-61
2024/03/25 10:00:10;;;;;;;2.80;1.42;;;9.20;70.00;;;;;;5044391;28;20056;-59
2024/03/25 10:02:40;;;;;;;2.97;1.55;;;9.20;68.70;;;;;;5047071;28;20037;-60
2024/03/25 10:05:06;;;;;;;3.83;1.67;;;9.30;68.80;;;;;;5045758;28;20523;-59
2024/03/25 10:07:32;;;;;;;2.15;1.63;;;9.30;68.00;;;;;;5044130;28;20087;-59
2024/03/25 10:09:58;;;;;;;3.03;1.50;;;9.40;68.50;;;;;;5050472;28;20049;-60
2024/03/25 10:12:24;;;;;;;3.08;1.60;;;9.50;69.30;;;;;;5039340;28;20083;-60
2024/03/25 10:14:50;;;;;;;2.00;1.70;;;9.50;69.30;;;;;;5042491;28;20496;-60
2024/03/25 10:17:16;;;;;;;2.78;1.50;;;9.60;68.70;;;;;;5046092;28;20044;-60
2024/03/25 10:19:42;;;;;;;3.25;1.50;;;9.70;67.80;;;;;;5046310;28;20518;-61
2024/03/25 10:22:08;;;;;;;4.03;1.58;;;9.80;67.60;;;;;;5047681;28;20091;-61
2024/03/25 10:24:41;;;;;;;3.70;1.48;;;9.80;67.60;;;;;;5043602;28;20124;-61
2024/03/25 10:27:20;;;;;;;2.47;1.40;;;9.90;66.80;;;;;;5042223;28;20435;-61
2024/03/25 10:29:47;;;;;;;3.80;1.70;;;9.90;66.90;;;;;;5048005;28;20049;-59
2024/03/25 10:32:15;;;;;;;3.58;1.88;;;10.00;67.00;;;;;;5046389;28;20045;-60
2024/03/25 10:34:41;;;;;;;3.78;1.60;;;10.00;66.20;;;;;;5047393;28;20040;-61
2024/03/25 10:37:09;;;;;;;2.88;1.50;;;10.10;66.30;;;;;;5046388;28;20037;-60
2024/03/25 10:39:42;;;;;;;3.13;1.70;;;10.10;66.10;;;;;;5038601;28;20036;-61
2024/03/25 10:42:13;;;;;;;2.40;1.55;;;10.10;65.50;;;;;;5046834;28;20523;-60
2024/03/25 10:44:39;;;;;;;4.68;1.83;;;10.10;65.50;;;;;;5045857;28;20072;-61
2024/03/25 10:47:06;;;;;;;2.45;1.90;;;10.20;64.10;;;;;;5044191;28;20068;-61
2024/03/25 10:49:48;;;;;;;3.53;1.50;;;10.20;63.20;;;;;;5047584;28;20125;-61
2024/03/25 10:52:15;;;;;;;3.67;1.83;;;10.20;62.70;;;;;;5038951;28;20029;-60
2024/03/25 10:54:42;;;;;;;2.78;1.50;;;10.20;64.10;;;;;;5045123;28;20040;-62
2024/03/25 10:57:10;;;;;;;3.65;1.35;;;10.20;62.70;;;;;;5048727;28;20043;-62
2024/03/25 10:59:40;;;;;;;2.85;1.20;;;10.20;62.90;;;;;;5045167;28;20029;-61
2024/03/25 11:02:10;;;;;;;3.53;1.73;;;10.20;61.30;;;;;;5048748;28;20033;-62
2024/03/25 11:04:37;;;;;;;1.73;1.02;;;10.20;60.30;;;;;;5039868;28;20067;-61
2024/03/25 11:07:10;;;;;;;1.90;1.13;;;10.20;61.20;;;;;;5049444;28;20041;-61
2024/03/25 11:09:36;;;;;;;1.60;1.17;;;10.30;61.80;;;;;;5041965;28;20079;-62
2024/03/25 11:12:02;;;;;;;2.30;0.98;;;10.30;62.70;;;;;;5040325;28;20040;-59
2024/03/25 11:14:28;;;;;;;2.50;1.20;;;10.40;62.80;;;;;;5044188;28;20060;-61
2024/03/25 11:16:55;;;;;;;2.42;1.05;;;10.40;62.00;;;;;;5045656;28;20516;-61
2024/03/25 11:19:24;;;;;;;1.95;1.10;;;10.50;61.60;;;;;;5045085;28;20405;-60
2024/03/25 11:21:50;;;;;;;1.65;1.00;;;10.60;62.00;;;;;;5043396;28;20037;-61
2024/03/25 11:24:28;;;;;;;2.85;1.17;;;10.60;62.10;;;;;;5037752;28;20117;-60
2024/03/25 11:26:53;;;;;;;2.30;1.05;;;10.70;60.80;;;;;;5047752;28;20508;-60
2024/03/25 11:29:19;;;;;;;2.88;1.10;;;10.80;61.90;;;;;;5042618;28;20052;-61
2024/03/25 11:31:45;;;;;;;3.25;1.20;;;10.90;61.30;;;;;;5046597;28;20037;-60
2024/03/25 11:34:11;;;;;;;2.22;1.00;;;11.00;60.70;;;;;;5047693;28;20041;-61
2024/03/25 11:36:36;;;;;;;1.70;1.30;;;11.00;61.10;;;;;;5042441;28;20033;-61
2024/03/25 11:39:04;;;;;;;2.25;1.20;;;11.10;61.00;;;;;;5042492;28;20022;-61
2024/03/25 11:41:33;;;;;;;2.47;1.10;;;11.20;60.70;;;;;;5045126;28;20072;-62
2024/03/25 11:43:59;;;;;;;1.15;0.90;;;11.30;60.30;;;;;;5042433;28;20036;-61
2024/03/25 11:46:25;;;;;;;1.77;1.00;;;11.40;60.50;;;;;;5051555;28;20025;-60
2024/03/25 11:48:52;;;;;;;2.80;1.00;;;11.50;60.00;;;;;;5047675;28;20033;-60
2024/03/25 11:51:18;;;;;;;1.33;0.90;;;11.50;59.40;;;;;;5038370;28;20034;-59
2024/03/25 11:53:44;;;;;;;2.00;0.95;;;11.60;59.30;;;;;;5047530;28;20033;-60
2024/03/25 11:56:11;;;;;;;1.25;0.90;;;11.70;59.40;;;;;;5044800;28;20031;-61
2024/03/25 11:58:38;;;;;;;1.52;0.80;;;11.70;59.00;;;;;;5045156;28;20047;-61
2024/03/25 12:01:04;;;;;;;1.83;0.90;;;11.80;59.00;;;;;;5046334;28;20083;-61
2024/03/25 12:03:30;;;;;;;2.70;0.90;;;11.80;58.60;;;;;;5037556;28;20029;-60
2024/03/25 12:05:56;;;;;;;2.03;1.00;;;11.90;58.60;;;;;;5040275;28;20388;-60
2024/03/25 12:08:25;;;;;;;1.23;0.98;;;11.90;58.30;;;;;;5046346;28;20087;-60
2024/03/25 12:13:40;;;;;;;1.35;0.93;;;12.00;58.00;;;;;;5045908;28;20640;-61
2024/03/25 12:16:07;;;;;;;1.30;0.77;;;12.10;57.40;;;;;;5046471;28;20040;-60
2024/03/25 12:18:34;;;;;;;1.80;1.13;;;12.10;57.00;;;;;;5046466;28;20316;-61
2024/03/25 12:21:00;;;;;;;1.80;0.60;;;12.10;57.10;;;;;;5047720;28;20040;-61
2024/03/25 12:23:30;;;;;;;2.13;0.65;;;12.00;57.10;;;;;;5048533;28;20043;-59
2024/03/25 12:25:55;;;;;;;2.13;0.57;;;12.10;56.90;;;;;;5052243;28;20122;-60
2024/03/25 12:28:21;;;;;;;1.67;0.73;;;12.10;57.30;;;;;;5045317;28;20489;-61
2024/03/25 12:30:52;;;;;;;1.50;0.60;;;12.10;56.80;;;;;;5046908;28;20052;-62
2024/03/25 12:33:18;;;;;;;1.52;0.70;;;12.10;56.50;;;;;;5051770;28;20112;-61
2024/03/25 12:35:48;;;;;;;0.98;0.73;;;12.20;56.60;;;;;;5048465;28;20520;-60
2024/03/25 12:38:33;;;;;;;1.05;0.80;;;12.20;55.90;;;;;;5049278;28;20040;-60
2024/03/25 12:41:10;;;;;;;3.35;0.95;;;12.20;55.50;;;;;;5049248;28;20095;-62
2024/03/25 12:43:42;;;;;;;1.70;0.70;;;12.30;55.60;;;;;;5044069;28;20029;-59
2024/03/25 12:46:08;;;;;;;1.42;0.70;;;12.30;56.20;;;;;;5052870;28;20073;-60
2024/03/25 12:48:35;;;;;;;2.40;0.68;;;12.30;55.80;;;;;;5048686;28;20033;-60
2024/03/25 12:51:00;;;;;;;0.90;0.55;;;12.30;55.60;;;;;;5044873;28;20045;-59
2024/03/25 12:53:26;;;;;;;1.35;0.60;;;12.30;55.20;;;;;;5050087;28;20404;-57
2024/03/25 12:55:52;;;;;;;1.05;0.60;;;12.30;54.90;;;;;;5042071;28;20036;-61
2024/03/25 12:58:18;;;;;;;1.20;0.50;;;12.20;54.80;;;;;;5049538;28;20025;-59